createdAt,value
2023-03-19T00:01:46.524Z,96423.75
2023-03-19T00:04:31.549Z,96428.81
2023-03-19T00:07:16.493Z,96425.59
2023-03-19T00:10:01.377Z,96431.81
2023-03-19T00:12:46.348Z,96427.72
2023-03-19T00:15:31.311Z,96429.00
2023-03-19T00:18:16.245Z,96441.44
2023-03-19T00:21:01.208Z,96434.78
2023-03-19T00:23:46.019Z,96431.34
2023-03-19T00:26:31.008Z,96439.31
2023-03-19T00:29:15.764Z,96429.81
2023-03-19T00:32:00.777Z,96428.66
2023-03-19T00:34:45.599Z,96434.59
2023-03-19T00:37:30.504Z,96445.69
2023-03-19T00:40:15.453Z,96438.63
2023-03-19T00:43:00.379Z,96438.94
2023-03-19T00:45:45.388Z,96444.09
2023-03-19T00:48:30.209Z,96446.88
2023-03-19T00:51:15.324Z,96437.72
2023-03-19T00:54:00.132Z,96433.69
2023-03-19T00:56:45.125Z,96440.78
2023-03-19T00:59:29.866Z,96447.47
2023-03-19T01:02:14.797Z,96442.16
2023-03-19T01:04:59.548Z,96433.28
2023-03-19T01:07:44.363Z,96434.13
2023-03-19T01:10:29.158Z,96427.94
2023-03-19T01:13:13.970Z,96431.72
2023-03-19T01:15:58.832Z,96434.84
2023-03-19T01:18:43.697Z,96431.59
2023-03-19T01:21:28.570Z,96430.81
2023-03-19T01:24:13.365Z,96432.94
2023-03-19T01:26:58.452Z,96423.84
2023-03-19T01:29:43.260Z,96420.53
2023-03-19T01:32:28.246Z,96416.69
2023-03-19T01:35:13.346Z,96418.31
2023-03-19T01:37:58.175Z,96420.47
2023-03-19T01:40:43.088Z,96418.22
2023-03-19T01:43:27.880Z,96422.56
2023-03-19T01:46:12.875Z,96417.44
2023-03-19T01:48:57.811Z,96414.53
2023-03-19T01:51:42.739Z,96418.53
2023-03-19T01:54:27.507Z,96415.31
2023-03-19T01:57:12.309Z,96407.72
2023-03-19T01:59:57.138Z,96412.38
2023-03-19T02:02:41.959Z,96409.84
2023-03-19T02:05:26.991Z,96411.97
2023-03-19T02:08:11.964Z,96411.13
2023-03-19T02:10:56.780Z,96407.34
2023-03-19T02:13:41.657Z,96417.22
2023-03-19T02:16:26.607Z,96414.22
2023-03-19T02:19:11.349Z,96414.13
2023-03-19T02:21:56.208Z,96414.44
2023-03-19T02:24:41.124Z,96419.53
2023-03-19T02:27:26.032Z,96422.38
2023-03-19T02:30:10.919Z,96427.28
2023-03-19T02:32:55.880Z,96412.63
2023-03-19T02:35:40.780Z,96419.56
2023-03-19T02:38:25.513Z,96420.91
2023-03-19T02:41:10.343Z,96419.28
2023-03-19T02:43:55.282Z,96425.38
2023-03-19T02:46:40.198Z,96423.69
2023-03-19T02:49:25.102Z,96432.38
2023-03-19T02:52:10.022Z,96429.97
2023-03-19T02:54:54.934Z,96423.69
2023-03-19T02:57:39.654Z,96426.03
2023-03-19T03:00:24.621Z,96426.72
2023-03-19T03:03:09.386Z,96423.31
2023-03-19T03:05:54.389Z,96423.16
2023-03-19T03:08:39.152Z,96427.13
2023-03-19T03:11:24.011Z,96423.38
2023-03-19T03:14:08.904Z,96415.72
2023-03-19T03:16:53.730Z,96424.13
2023-03-19T03:19:38.546Z,96418.72
2023-03-19T03:22:23.404Z,96422.59
2023-03-19T03:25:08.413Z,96417.34
2023-03-19T03:27:53.198Z,96419.81
2023-03-19T03:30:38.098Z,96419.56
2023-03-19T03:33:22.930Z,96416.97
2023-03-19T03:36:07.787Z,96413.88
2023-03-19T03:38:52.693Z,96423.97
2023-03-19T03:41:37.594Z,96428.69
2023-03-19T03:44:22.521Z,96426.97
2023-03-19T03:47:07.451Z,96428.59
2023-03-19T03:49:52.384Z,96420.19
2023-03-19T03:52:37.153Z,96423.06
2023-03-19T03:55:21.993Z,96432.66
2023-03-19T03:58:06.954Z,96434.75
2023-03-19T04:00:51.970Z,96423.91
2023-03-19T04:03:36.811Z,96427.75
2023-03-19T04:06:21.726Z,96433.25
2023-03-19T04:09:06.580Z,96442.50
2023-03-19T04:11:51.683Z,96445.00
2023-03-19T04:14:36.857Z,96443.19
2023-03-19T04:17:21.615Z,96444.50
2023-03-19T04:20:06.553Z,96446.78
2023-03-19T04:22:51.351Z,96451.34
2023-03-19T04:25:36.325Z,96444.34
2023-03-19T04:28:21.161Z,96434.31
2023-03-19T04:31:06.660Z,96444.81
2023-03-19T04:33:52.058Z,96441.63
2023-03-19T04:36:36.855Z,96431.63
2023-03-19T04:39:21.696Z,96440.81
2023-03-19T04:42:06.559Z,96440.22
2023-03-19T04:44:51.419Z,96453.19
2023-03-19T04:47:36.290Z,96446.56
2023-03-19T04:50:21.252Z,96453.69
2023-03-19T04:53:06.051Z,96446.28
2023-03-19T04:55:50.935Z,96438.59
2023-03-19T04:58:36.025Z,96453.09
2023-03-19T05:01:20.949Z,96457.53
2023-03-19T05:04:06.021Z,96453.72
2023-03-19T05:06:50.946Z,96460.13
2023-03-19T05:09:35.868Z,96457.56
2023-03-19T05:12:20.690Z,96456.09
2023-03-19T05:15:05.611Z,96459.06
2023-03-19T05:17:50.444Z,96470.06
2023-03-19T05:20:35.703Z,96452.69
2023-03-19T05:23:20.733Z,96464.47
2023-03-19T05:26:05.556Z,96457.84
2023-03-19T05:28:50.638Z,96461.81
2023-03-19T05:31:35.539Z,96466.78
2023-03-19T05:34:20.213Z,96464.09
2023-03-19T05:37:05.138Z,96457.59
2023-03-19T05:39:49.971Z,96458.66
2023-03-19T05:42:34.832Z,96455.19
2023-03-19T05:45:19.763Z,96459.47
2023-03-19T05:48:04.794Z,96460.00
2023-03-19T05:50:49.663Z,96464.25
2023-03-19T05:53:34.624Z,96459.66
2023-03-19T05:56:19.420Z,96460.44
2023-03-19T05:59:04.450Z,96466.16
2023-03-19T06:01:49.283Z,96477.22
2023-03-19T06:04:34.182Z,96471.56
2023-03-19T06:07:18.953Z,96467.94
2023-03-19T06:10:03.848Z,96471.75
2023-03-19T06:12:48.834Z,96475.09
2023-03-19T06:15:33.788Z,96471.88
2023-03-19T06:18:19.245Z,96473.94
2023-03-19T06:21:03.932Z,96484.72
2023-03-19T06:23:48.912Z,96479.34
2023-03-19T06:26:33.765Z,96482.53
2023-03-19T06:29:18.626Z,96478.16
2023-03-19T06:32:03.590Z,96486.91
2023-03-19T06:34:48.417Z,96481.03
2023-03-19T06:37:33.454Z,96487.34
2023-03-19T06:40:18.212Z,96491.53
2023-03-19T06:43:03.104Z,96490.47
2023-03-19T06:45:48.090Z,96491.53
2023-03-19T06:48:33.013Z,96501.69
2023-03-19T06:51:17.815Z,96501.78
2023-03-19T06:54:02.702Z,96499.88
2023-03-19T06:56:47.615Z,96499.06
2023-03-19T06:59:32.523Z,96507.00
2023-03-19T07:02:17.348Z,96511.00
2023-03-19T07:05:02.316Z,96508.63
2023-03-19T07:07:47.323Z,96511.16
2023-03-19T07:10:32.273Z,96514.28
2023-03-19T07:13:17.594Z,96514.34
2023-03-19T07:16:02.495Z,96522.44
2023-03-19T07:18:47.504Z,96521.84
2023-03-19T07:21:32.425Z,96539.44
2023-03-19T07:24:17.305Z,96533.34
2023-03-19T07:27:02.257Z,96527.03
2023-03-19T07:29:46.984Z,96537.81
2023-03-19T07:32:32.036Z,96544.66
2023-03-19T07:35:16.840Z,96540.09
2023-03-19T07:38:01.651Z,96556.13
2023-03-19T07:41:00.970Z,96546.38
2023-03-19T07:43:46.508Z,96564.34
2023-03-19T07:46:31.904Z,96563.47
2023-03-19T07:49:16.809Z,96558.13
2023-03-19T07:52:01.838Z,96568.81
2023-03-19T07:54:46.692Z,96570.50
2023-03-19T07:57:31.638Z,96576.91
2023-03-19T08:00:16.447Z,96563.66
2023-03-19T08:03:01.458Z,96570.56
2023-03-19T08:05:46.280Z,96575.38
2023-03-19T08:08:31.247Z,96564.44
2023-03-19T08:11:16.061Z,96576.19
2023-03-19T08:14:00.879Z,96571.44
2023-03-19T08:16:45.771Z,96574.16
2023-03-19T08:19:30.963Z,96581.88
2023-03-19T08:22:15.897Z,96588.19
2023-03-19T08:25:00.676Z,96596.44
2023-03-19T08:27:45.677Z,96592.97
2023-03-19T08:30:30.462Z,96604.69
2023-03-19T08:33:15.477Z,96594.81
2023-03-19T08:36:00.350Z,96596.06
2023-03-19T08:38:45.207Z,96600.38
2023-03-19T08:41:30.398Z,96602.88
2023-03-19T08:44:15.276Z,96601.88
2023-03-19T08:47:00.165Z,96600.03
2023-03-19T08:49:44.996Z,96610.88
2023-03-19T08:52:29.940Z,96611.47
2023-03-19T08:55:14.827Z,96621.13
2023-03-19T08:57:59.626Z,96622.75
2023-03-19T09:00:44.560Z,96623.66
2023-03-19T09:03:30.058Z,96613.94
2023-03-19T09:06:15.028Z,96606.06
2023-03-19T09:08:59.868Z,96618.50
2023-03-19T09:11:44.914Z,96619.41
2023-03-19T09:14:29.861Z,96611.06
2023-03-19T09:17:14.599Z,96614.53
2023-03-19T09:19:59.558Z,96604.63
2023-03-19T09:22:44.523Z,96600.44
2023-03-19T09:25:29.474Z,96591.94
2023-03-19T09:28:14.347Z,96599.16
2023-03-19T09:30:59.268Z,96593.75
2023-03-19T09:33:44.074Z,96604.34
2023-03-19T09:36:29.113Z,96597.38
2023-03-19T09:39:14.191Z,96600.94
2023-03-19T09:41:59.701Z,96594.09
2023-03-19T09:44:44.570Z,96602.03
2023-03-19T09:47:29.621Z,96601.16
2023-03-19T09:50:14.646Z,96601.59
2023-03-19T09:52:59.450Z,96609.72
2023-03-19T09:55:44.324Z,96605.94
2023-03-19T09:58:29.215Z,96601.69
2023-03-19T10:01:14.135Z,96598.34
2023-03-19T10:03:58.915Z,96600.84
2023-03-19T10:06:43.835Z,96603.19
2023-03-19T10:09:28.661Z,96602.34
2023-03-19T10:12:13.634Z,96595.75
2023-03-19T10:14:58.576Z,96599.13
2023-03-19T10:17:43.379Z,96609.00
2023-03-19T10:20:28.257Z,96610.81
2023-03-19T10:23:13.207Z,96608.31
2023-03-19T10:25:58.268Z,96604.84
2023-03-19T10:28:43.091Z,96607.28
2023-03-19T10:31:28.110Z,96599.00
2023-03-19T10:34:12.979Z,96616.25
2023-03-19T10:36:57.825Z,96605.19
2023-03-19T10:39:42.764Z,96620.63
2023-03-19T10:42:27.544Z,96612.63
2023-03-19T10:45:12.513Z,96622.16
2023-03-19T10:47:57.394Z,96622.50
2023-03-19T10:50:42.383Z,96623.88
2023-03-19T10:53:27.196Z,96626.81
2023-03-19T10:56:12.203Z,96619.63
2023-03-19T10:58:57.020Z,96620.03
2023-03-19T11:01:41.996Z,96624.41
2023-03-19T11:04:27.008Z,96627.03
2023-03-19T11:07:11.706Z,96620.53
2023-03-19T11:09:56.658Z,96622.13
2023-03-19T11:12:41.485Z,96622.06
2023-03-19T11:15:26.384Z,96618.59
2023-03-19T11:18:11.206Z,96622.69
2023-03-19T11:20:56.021Z,96624.78
2023-03-19T11:23:40.793Z,96617.72
2023-03-19T11:26:25.745Z,96619.41
2023-03-19T11:29:10.642Z,96623.34
2023-03-19T11:31:55.529Z,96621.31
2023-03-19T11:34:40.254Z,96615.19
2023-03-19T11:37:25.128Z,96621.94
2023-03-19T11:40:10.024Z,96624.59
2023-03-19T11:42:54.794Z,96629.53
2023-03-19T11:45:41.995Z,96629.06
2023-03-19T11:48:27.083Z,96624.59
2023-03-19T11:51:12.059Z,96629.50
2023-03-19T11:53:56.936Z,96626.84
2023-03-19T11:56:41.811Z,96622.16
2023-03-19T11:59:26.894Z,96620.72
2023-03-19T12:02:11.766Z,96617.84
2023-03-19T12:04:56.795Z,96620.91
2023-03-19T12:07:41.524Z,96617.25
2023-03-19T12:10:26.315Z,96616.25
2023-03-19T12:13:11.209Z,96616.19
2023-03-19T12:15:56.095Z,96611.00
2023-03-19T12:18:40.922Z,96609.28
2023-03-19T12:21:25.874Z,96610.03
2023-03-19T12:24:10.633Z,96600.19
2023-03-19T12:26:55.514Z,96597.09
2023-03-19T12:29:40.374Z,96595.75
2023-03-19T12:32:25.179Z,96599.06
2023-03-19T12:35:10.049Z,96590.13
2023-03-19T12:37:54.953Z,96593.94
2023-03-19T12:40:39.709Z,96597.09
2023-03-19T12:43:24.590Z,96588.06
2023-03-19T12:46:09.467Z,96584.69
2023-03-19T12:48:54.330Z,96589.84
2023-03-19T12:51:39.184Z,96578.53
2023-03-19T12:54:24.268Z,96576.84
2023-03-19T12:57:09.136Z,96571.69
2023-03-19T12:59:54.030Z,96571.53
2023-03-19T13:02:39.166Z,96562.34
2023-03-19T13:05:24.534Z,96554.38
2023-03-19T13:08:09.416Z,96560.31
2023-03-19T13:10:54.060Z,96552.44
2023-03-19T13:13:38.983Z,96547.06
2023-03-19T13:16:23.755Z,96549.41
2023-03-19T13:19:08.578Z,96555.16
2023-03-19T13:21:53.406Z,96547.94
2023-03-19T13:24:38.451Z,96548.69
2023-03-19T13:27:23.317Z,96550.97
2023-03-19T13:30:08.251Z,96544.97
2023-03-19T13:32:53.419Z,96552.47
2023-03-19T13:35:38.215Z,96543.16
2023-03-19T13:38:23.326Z,96550.72
2023-03-19T13:41:08.223Z,96540.59
2023-03-19T13:43:53.085Z,96546.38
2023-03-19T13:46:38.061Z,96540.25
2023-03-19T13:49:23.544Z,96542.00
2023-03-19T13:52:08.325Z,96531.47
2023-03-19T13:54:53.253Z,96534.97
2023-03-19T13:57:38.226Z,96529.03
2023-03-19T14:00:22.850Z,96529.28
2023-03-19T14:03:07.779Z,96522.28
2023-03-19T14:05:52.573Z,96526.50
2023-03-19T14:08:37.332Z,96526.03
2023-03-19T14:11:22.210Z,96520.44
2023-03-19T14:14:07.048Z,96519.94
2023-03-19T14:16:52.034Z,96532.50
2023-03-19T14:19:36.835Z,96525.31
2023-03-19T14:22:21.972Z,96533.94
2023-03-19T14:25:06.862Z,96527.66
2023-03-19T14:27:51.737Z,96529.31
2023-03-19T14:30:36.896Z,96527.94
2023-03-19T14:33:22.600Z,96522.63
2023-03-19T14:36:07.525Z,96518.34
2023-03-19T14:38:52.280Z,96522.34
2023-03-19T14:41:37.209Z,96521.41
2023-03-19T14:44:21.994Z,96524.69
2023-03-19T14:47:06.958Z,96526.84
2023-03-19T14:49:51.902Z,96528.25
2023-03-19T14:52:36.841Z,96529.97
2023-03-19T14:55:21.547Z,96521.06
2023-03-19T14:58:07.536Z,96528.75
2023-03-19T15:00:52.792Z,96527.25
2023-03-19T15:03:37.619Z,96528.03
2023-03-19T15:06:22.652Z,96530.84
2023-03-19T15:09:07.296Z,96532.47
2023-03-19T15:11:52.313Z,96524.31
2023-03-19T15:14:37.102Z,96537.03
2023-03-19T15:17:22.085Z,96534.81
2023-03-19T15:20:06.965Z,96529.78
2023-03-19T15:22:51.866Z,96531.41
2023-03-19T15:25:36.992Z,96539.81
2023-03-19T15:28:22.053Z,96542.19
2023-03-19T15:31:29.257Z,96545.25
2023-03-19T15:34:12.343Z,96545.81
2023-03-19T15:36:57.660Z,96547.81
2023-03-19T15:39:42.713Z,96543.28
2023-03-19T15:42:27.591Z,96543.31
2023-03-19T15:45:12.607Z,96547.97
2023-03-19T15:47:57.530Z,96553.81
2023-03-19T15:50:42.298Z,96551.25
2023-03-19T15:53:27.092Z,96566.88
2023-03-19T15:56:11.889Z,96564.91
2023-03-19T15:58:56.829Z,96566.34
2023-03-19T16:01:41.781Z,96563.31
2023-03-19T16:04:26.675Z,96556.91
2023-03-19T16:07:11.548Z,96552.13
2023-03-19T16:09:56.460Z,96554.31
2023-03-19T16:12:41.290Z,96556.38
2023-03-19T16:15:26.295Z,96550.09
2023-03-19T16:18:11.008Z,96545.16
2023-03-19T16:20:56.002Z,96546.25
2023-03-19T16:23:40.998Z,96547.59
2023-03-19T16:26:25.777Z,96547.09
2023-03-19T16:29:10.580Z,96550.84
2023-03-19T16:31:55.348Z,96549.97
2023-03-19T16:34:40.272Z,96554.72
2023-03-19T16:37:25.082Z,96553.47
2023-03-19T16:40:10.051Z,96559.03
2023-03-19T16:42:54.924Z,96556.06
2023-03-19T16:45:39.913Z,96566.13
2023-03-19T16:48:24.745Z,96561.47
2023-03-19T16:51:09.657Z,96563.94
2023-03-19T16:53:54.509Z,96570.78
2023-03-19T16:56:39.508Z,96574.44
2023-03-19T16:59:24.513Z,96571.53
2023-03-19T17:02:09.405Z,96573.94
2023-03-19T17:04:54.373Z,96576.41
2023-03-19T17:07:39.131Z,96569.69
2023-03-19T17:10:24.096Z,96581.59
2023-03-19T17:13:09.001Z,96584.84
2023-03-19T17:15:53.932Z,96596.91
2023-03-19T17:18:38.806Z,96589.47
2023-03-19T17:21:23.775Z,96601.19
2023-03-19T17:24:09.233Z,96603.81
2023-03-19T17:26:54.767Z,96605.16
2023-03-19T17:29:39.697Z,96614.72
2023-03-19T17:32:24.442Z,96618.25
2023-03-19T17:35:09.479Z,96620.91
2023-03-19T17:37:54.456Z,96627.59
2023-03-19T17:40:39.190Z,96625.97
2023-03-19T17:43:24.114Z,96630.97
2023-03-19T17:46:08.905Z,96633.97
2023-03-19T17:48:53.718Z,96642.44
2023-03-19T17:51:38.528Z,96649.38
2023-03-19T17:54:23.536Z,96661.56
2023-03-19T17:57:08.436Z,96673.13
2023-03-19T17:59:53.310Z,96667.38
2023-03-19T18:02:38.281Z,96674.09
2023-03-19T18:05:23.204Z,96673.22
2023-03-19T18:08:08.281Z,96680.34
2023-03-19T18:10:53.166Z,96686.28
2023-03-19T18:13:37.990Z,96684.34
2023-03-19T18:16:22.821Z,96683.00
2023-03-19T18:19:07.696Z,96690.72
2023-03-19T18:21:52.633Z,96688.69
2023-03-19T18:24:37.597Z,96694.00
2023-03-19T18:27:22.562Z,96694.97
2023-03-19T18:30:07.506Z,96691.66
2023-03-19T18:32:52.563Z,96692.19
2023-03-19T18:35:37.512Z,96700.31
2023-03-19T18:38:22.704Z,96699.97
2023-03-19T18:41:07.557Z,96701.22
2023-03-19T18:43:52.531Z,96711.16
2023-03-19T18:46:37.408Z,96720.22
2023-03-19T18:49:22.371Z,96717.66
2023-03-19T18:52:07.300Z,96721.22
2023-03-19T18:54:52.244Z,96731.72
2023-03-19T18:57:37.277Z,96729.72
2023-03-19T19:00:22.026Z,96738.47
2023-03-19T19:03:06.973Z,96735.47
2023-03-19T19:05:51.736Z,96743.84
2023-03-19T19:08:36.509Z,96736.28
2023-03-19T19:11:21.472Z,96743.69
2023-03-19T19:14:06.320Z,96741.41
2023-03-19T19:16:51.289Z,96740.00
2023-03-19T19:19:36.377Z,96736.50
2023-03-19T19:22:21.507Z,96740.81
2023-03-19T19:25:06.444Z,96741.19
2023-03-19T19:27:51.344Z,96742.63
2023-03-19T19:30:36.277Z,96748.25
2023-03-19T19:33:21.357Z,96758.47
2023-03-19T19:36:06.419Z,96765.16
2023-03-19T19:38:51.442Z,96768.16
2023-03-19T19:41:36.394Z,96770.28
2023-03-19T19:44:21.248Z,96770.00
2023-03-19T19:47:09.740Z,96777.84
2023-03-19T19:49:56.784Z,96767.44
2023-03-19T19:52:41.642Z,96775.81
2023-03-19T19:55:26.469Z,96774.59
2023-03-19T19:58:11.372Z,96788.50
2023-03-19T20:01:03.178Z,96795.41
2023-03-19T20:03:49.577Z,96794.97
2023-03-19T20:06:34.523Z,96802.47
2023-03-19T20:09:19.552Z,96802.03
2023-03-19T20:12:04.484Z,96803.47
2023-03-19T20:14:49.402Z,96803.13
2023-03-19T20:17:34.375Z,96806.38
2023-03-19T20:20:19.353Z,96802.53
2023-03-19T20:23:04.345Z,96805.81
2023-03-19T20:25:49.159Z,96804.94
2023-03-19T20:28:34.126Z,96812.53
2023-03-19T20:31:19.111Z,96805.13
2023-03-19T20:34:03.879Z,96814.03
2023-03-19T20:36:48.855Z,96820.94
2023-03-19T20:39:33.711Z,96812.94
2023-03-19T20:42:18.947Z,96818.84
2023-03-19T20:45:03.597Z,96818.19
2023-03-19T20:47:48.569Z,96822.50
2023-03-19T20:50:33.660Z,96814.66
2023-03-19T20:53:18.494Z,96818.63
2023-03-19T20:56:03.503Z,96817.13
2023-03-19T20:58:48.457Z,96822.19
2023-03-19T21:01:33.383Z,96834.69
2023-03-19T21:04:18.247Z,96834.53
2023-03-19T21:07:03.379Z,96830.69
2023-03-19T21:09:48.121Z,96831.56
2023-03-19T21:12:33.129Z,96839.88
2023-03-19T21:15:17.895Z,96838.19
2023-03-19T21:18:02.860Z,96843.66
2023-03-19T21:20:47.977Z,96839.59
2023-03-19T21:23:32.660Z,96838.97
2023-03-19T21:26:17.640Z,96844.28
2023-03-19T21:29:02.517Z,96838.16
2023-03-19T21:31:47.857Z,96853.72
2023-03-19T21:34:33.224Z,96850.81
2023-03-19T21:37:18.085Z,96843.41
2023-03-19T21:40:02.942Z,96853.47
2023-03-19T21:42:47.877Z,96850.97
2023-03-19T21:45:33.562Z,96859.69
2023-03-19T21:48:18.562Z,96855.75
2023-03-19T21:51:03.455Z,96858.75
2023-03-19T21:53:48.305Z,96851.19
2023-03-19T21:56:33.209Z,96849.75
2023-03-19T21:59:18.155Z,96852.66
2023-03-19T22:02:03.132Z,96847.94
2023-03-19T22:04:49.119Z,96860.50
2023-03-19T22:07:34.215Z,96856.28
2023-03-19T22:10:20.184Z,96867.31
2023-03-19T22:13:04.998Z,96859.41
2023-03-19T22:15:49.884Z,96857.84
2023-03-19T22:18:34.580Z,96855.97
2023-03-19T22:21:19.486Z,96860.38
2023-03-19T22:24:04.359Z,96854.03
2023-03-19T22:26:49.280Z,96858.75
2023-03-19T22:29:34.296Z,96863.97
2023-03-19T22:32:19.057Z,96857.75
2023-03-19T22:35:04.907Z,96860.38
2023-03-19T22:37:49.696Z,96862.84
2023-03-19T22:40:34.614Z,96867.31
2023-03-19T22:43:19.457Z,96858.56
2023-03-19T22:46:04.583Z,96857.97
2023-03-19T22:48:49.838Z,96863.06
2023-03-19T22:51:34.590Z,96867.06
2023-03-19T22:54:19.502Z,96869.69
2023-03-19T22:57:04.313Z,96864.19
2023-03-19T22:59:49.242Z,96858.13
2023-03-19T23:02:34.128Z,96862.72
2023-03-19T23:05:19.198Z,96864.94
2023-03-19T23:08:06.011Z,96868.25
2023-03-19T23:10:51.379Z,96864.56
2023-03-19T23:13:36.308Z,96858.63
2023-03-19T23:16:21.381Z,96860.06
2023-03-19T23:19:06.692Z,96857.28
2023-03-19T23:21:51.450Z,96858.88
2023-03-19T23:24:36.422Z,96854.84
2023-03-19T23:27:21.317Z,96853.97
2023-03-19T23:30:06.158Z,96858.06
2023-03-19T23:32:51.091Z,96846.56
2023-03-19T23:35:36.069Z,96852.06
2023-03-19T23:38:21.317Z,96864.38
2023-03-19T23:41:06.247Z,96857.88
2023-03-19T23:43:51.258Z,96848.50
2023-03-19T23:46:36.166Z,96856.09
2023-03-19T23:49:21.051Z,96862.59
2023-03-19T23:52:05.920Z,96861.31
2023-03-19T23:54:50.877Z,96860.56
2023-03-19T23:57:35.870Z,96857.84
